Time;durP1;ratioP1;P1;durP2;ratioP2;P2;SDS_P1;SDS_P2;PMS_P1;PMS_P2;Temp;Humidity;BMP_temperature;BMP_pressure;BME280_temperature;BME280_humidity;BME280_pressure;Samples;Min_cycle;Max_cycle;Signal;HPM_P1;HPM_P2
2022/11/29 00:00:57;;;;;;;24.48;13.50;;;;;;;5.66;100.00;98533.69;5049423;28;20107;-75
2022/11/29 00:03:22;;;;;;;24.23;13.60;;;;;;;5.62;100.00;98522.44;5042039;28;20036;-76
2022/11/29 00:05:47;;;;;;;24.70;13.95;;;;;;;5.60;100.00;98523.63;5045066;28;20025;-78
2022/11/29 00:08:13;;;;;;;26.55;13.45;;;;;;;5.66;100.00;98531.81;5046862;28;20135;-77
2022/11/29 00:10:38;;;;;;;26.73;13.80;;;;;;;5.63;100.00;98526.81;5051309;28;20139;-77
2022/11/29 00:13:04;;;;;;;25.60;13.48;;;;;;;5.73;100.00;98539.97;5034903;28;20378;-76
2022/11/29 00:15:29;;;;;;;29.88;14.27;;;;;;;5.77;100.00;98527.88;5049139;28;20025;-77
2022/11/29 00:17:54;;;;;;;24.50;13.25;;;;;;;5.62;100.00;98517.06;5053221;28;20053;-75
2022/11/29 00:20:20;;;;;;;23.40;12.90;;;;;;;5.82;100.00;98538.91;5047897;28;20079;-76
2022/11/29 00:22:45;;;;;;;26.35;12.77;;;;;;;5.59;100.00;98504.03;5049070;28;20074;-78
2022/11/29 00:25:10;;;;;;;27.00;13.80;;;;;;;5.76;100.00;98528.88;5046466;28;20462;-77
2022/11/29 00:27:36;;;;;;;25.42;13.38;;;;;;;5.61;100.00;98493.94;5047299;28;20033;-77
2022/11/29 00:30:01;;;;;;;22.55;12.60;;;;;;;5.65;100.00;98510.50;5047932;28;20021;-77
2022/11/29 00:32:26;;;;;;;29.40;13.30;;;;;;;5.61;100.00;98503.84;5048510;28;20021;-76
2022/11/29 00:34:52;;;;;;;28.20;13.82;;;;;;;5.80;100.00;98540.94;5044863;28;20040;-76
2022/11/29 00:37:17;;;;;;;31.42;15.02;;;;;;;5.76;100.00;98534.25;5051050;28;20021;-77
2022/11/29 00:39:42;;;;;;;25.35;14.68;;;;;;;5.67;100.00;98520.06;5053497;28;20068;-76
2022/11/29 00:42:08;;;;;;;23.55;12.65;;;;;;;5.62;100.00;98516.25;5055155;28;20025;-77
2022/11/29 00:44:33;;;;;;;29.88;14.40;;;;;;;5.62;100.00;98522.44;5040605;28;20021;-76
2022/11/29 00:46:58;;;;;;;30.15;14.18;;;;;;;5.77;100.00;98544.00;5048523;28;20021;-76
2022/11/29 00:49:23;;;;;;;26.33;13.30;;;;;;;5.61;100.00;98514.59;5042539;28;20032;-77
2022/11/29 00:51:49;;;;;;;26.88;15.07;;;;;;;5.70;100.00;98530.44;5033501;28;20026;-77
2022/11/29 00:54:15;;;;;;;35.92;15.73;;;;;;;5.52;100.00;98502.22;5048475;28;20155;-76
2022/11/29 00:56:41;;;;;;;35.25;15.02;;;;;;;5.52;100.00;98499.53;5046389;28;20013;-76
2022/11/29 00:59:06;;;;;;;35.55;15.10;;;;;;;5.70;100.00;98535.81;5049396;28;20029;-77
2022/11/29 01:01:31;;;;;;;29.40;14.00;;;;;;;5.83;100.00;98539.75;5051052;28;20029;-77
2022/11/29 01:03:58;;;;;;;32.47;14.27;;;;;;;5.63;100.00;98513.41;5047986;28;20060;-77
2022/11/29 01:06:23;;;;;;;31.63;14.85;;;;;;;5.75;100.00;98534.44;5057034;28;20052;-76
2022/11/29 01:08:49;;;;;;;26.88;14.80;;;;;;;5.89;100.00;98547.06;5053644;28;20486;-77
2022/11/29 01:11:18;;;;;;;33.45;15.50;;;;;;;5.83;100.00;98545.13;5051939;28;20048;-78
2022/11/29 01:13:44;;;;;;;28.60;15.57;;;;;;;5.66;100.00;98515.72;5045911;28;20024;-77
2022/11/29 01:16:09;;;;;;;33.35;17.55;;;;;;;5.77;100.00;98544.00;5051898;28;20036;-76
2022/11/29 01:18:36;;;;;;;39.92;17.25;;;;;;;5.79;100.00;98541.97;5052876;28;20021;-76
2022/11/29 01:21:03;;;;;;;35.83;16.55;;;;;;;5.76;100.00;98528.88;5052642;28;20029;-79
2022/11/29 01:23:29;;;;;;;32.22;15.45;;;;;;;5.95;100.00;98561.66;5049219;28;20063;-77
2022/11/29 01:26:03;;;;;;;31.40;14.55;;;;;;;5.91;100.00;98547.72;5053943;28;20076;-75
2022/11/29 01:28:29;;;;;;;35.45;15.30;;;;;;;5.88;100.00;98548.94;5034995;28;20025;-75
2022/11/29 01:30:55;;;;;;;32.97;14.95;;;;;;;5.97;100.00;98563.16;5048831;28;20021;-77
2022/11/29 01:33:21;;;;;;;32.42;15.02;;;;;;;5.87;100.00;98533.84;5041789;28;20041;-76
2022/11/29 01:35:48;;;;;;;29.23;14.23;;;;;;;5.93;100.00;98551.06;5044468;28;20036;-77
2022/11/29 01:38:13;;;;;;;32.70;14.80;;;;;;;5.83;100.00;98537.88;5046205;28;20052;-76
2022/11/29 01:40:39;;;;;;;31.73;15.40;;;;;;;5.93;100.00;98562.69;5051995;28;20371;-77
2022/11/29 01:43:13;;;;;;;30.27;14.52;;;;;;;5.66;100.00;98512.22;5048391;28;20470;-77
2022/11/29 01:45:39;;;;;;;34.80;13.95;;;;;;;5.86;100.00;98540.22;5050512;28;20029;-77
2022/11/29 01:48:05;;;;;;;25.80;12.63;;;;;;;6.02;100.00;98563.44;5042723;28;20028;-76
2022/11/29 01:50:30;;;;;;;32.28;14.68;;;;;;;6.03;100.00;98564.31;5053292;28;20025;-76
2022/11/29 01:52:56;;;;;;;29.60;14.02;;;;;;;5.94;100.00;98547.41;5047824;28;20029;-77
2022/11/29 01:55:21;;;;;;;30.95;13.52;;;;;;;5.98;100.00;98540.66;5050753;28;20021;-78
2022/11/29 01:57:47;;;;;;;29.50;12.80;;;;;;;6.07;100.00;98546.78;5042590;28;20025;-77
2022/11/29 02:00:16;;;;;;;24.80;13.00;;;;;;;6.13;100.00;98551.44;5045494;28;20084;-76
2022/11/29 02:03:09;;;;;;;21.38;12.38;;;;;;;6.15;100.00;98552.09;5052785;28;20082;-77
2022/11/29 02:05:37;;;;;;;24.92;12.50;;;;;;;6.14;100.00;98545.06;5046338;28;20079;-77
2022/11/29 02:08:03;;;;;;;24.30;12.18;;;;;;;6.12;100.00;98536.34;5044010;28;20060;-78
2022/11/29 02:11:07;;;;;;;22.30;12.30;;;;;;;6.19;100.00;98556.09;5043799;28;20057;-77
2022/11/29 02:13:46;;;;;;;26.70;12.75;;;;;;;6.21;100.00;98548.69;5043289;28;20124;-78
2022/11/29 02:16:19;;;;;;;;;;;;;;;6.19;100.00;98556.09;5043893;28;20036;-78
2022/11/29 02:19:03;;;;;;;20.77;10.70;;;;;;;6.20;100.00;98557.75;5046745;28;19932;-77
2022/11/29 02:21:48;;;;;;;19.85;11.73;;;;;;;6.08;100.00;98538.56;5048983;28;20036;-77
2022/11/29 02:24:22;;;;;;;23.15;12.55;;;;;;;6.20;100.00;98557.75;5050959;28;20033;-76
2022/11/29 02:27:42;;;;;;;20.63;11.73;;;;;;;6.19;100.00;98561.47;5043730;28;20032;-76
2022/11/29 02:30:33;;;;;;;23.58;11.90;;;;;;;6.22;100.00;98558.41;4983268;28;20052;-77
2022/11/29 02:33:18;;;;;;;26.95;12.65;;;;;;;6.00;100.00;98514.47;5031612;28;20507;-76
2022/11/29 02:35:46;;;;;;;23.08;12.52;;;;;;;6.21;100.00;98553.22;5034584;28;20425;-77
2022/11/29 02:38:25;;;;;;;20.92;11.48;;;;;;;6.22;100.00;98557.59;5033888;28;20033;-76
2022/11/29 02:41:10;;;;;;;22.60;11.57;;;;;;;6.08;100.00;98537.75;5048793;28;20470;-77
2022/11/29 02:44:01;;;;;;;29.67;13.52;;;;;;;6.17;100.00;98551.94;5032889;28;20073;-75
2022/11/29 02:46:49;;;;;;;23.17;12.98;;;;;;;6.12;100.00;98549.78;5047172;28;20028;-76
2022/11/29 02:49:40;;;;;;;29.93;13.47;;;;;;;6.08;100.00;98548.50;5042418;28;20025;-77
2022/11/29 02:52:17;;;;;;;24.38;12.55;;;;;;;6.08;100.00;98548.50;5043567;28;20025;-76
2022/11/29 02:55:18;;;;;;;31.52;14.23;;;;;;;6.20;100.00;98560.44;5057089;28;20028;-76
2022/11/29 02:57:58;;;;;;;26.38;12.82;;;;;;;6.13;100.00;98551.44;5023850;28;20041;-76
2022/11/29 03:00:23;;;;;;;25.98;12.52;;;;;;;6.12;100.00;98542.53;5050118;28;20029;-77
2022/11/29 03:03:14;;;;;;;24.40;12.25;;;;;;;6.25;100.00;98563.44;5044618;28;20090;-76
2022/11/29 03:05:52;;;;;;;27.08;12.50;;;;;;;6.24;100.00;98566.31;5045142;28;20025;-77
2022/11/29 03:08:43;;;;;;;28.10;12.43;;;;;;;6.23;100.00;98568.13;5043028;28;20120;-76
2022/11/29 03:11:16;;;;;;;21.23;10.77;;;;;;;6.20;100.00;98565.81;5051052;28;20032;-76
2022/11/29 03:14:06;;;;;;;24.33;12.65;;;;;;;6.21;100.00;98575.56;5055352;28;20029;-77
2022/11/29 03:16:58;;;;;;;25.13;12.43;;;;;;;6.22;100.00;98576.41;5050403;28;20032;-75
2022/11/29 03:19:51;;;;;;;24.95;13.15;;;;;;;6.22;100.00;98569.16;5036719;28;20025;-76
2022/11/29 03:22:28;;;;;;;23.13;11.60;;;;;;;6.20;100.00;98562.31;5051131;28;20409;-76
2022/11/29 03:24:56;;;;;;;18.00;11.05;;;;;;;6.34;100.00;98573.09;5057528;28;20025;-78
2022/11/29 03:27:33;;;;;;;26.33;12.48;;;;;;;6.21;100.00;98564.81;5056925;28;20064;-75
2022/11/29 03:30:03;;;;;;;24.73;12.05;;;;;;;6.22;100.00;98571.84;5050610;28;20444;-75
2022/11/29 03:32:56;;;;;;;29.17;12.63;;;;;;;6.29;100.00;98577.34;5048059;28;20025;-76
2022/11/29 03:35:30;;;;;;;25.00;11.75;;;;;;;6.27;100.00;98582.06;5053442;28;20390;-76
2022/11/29 03:38:13;;;;;;;25.65;13.50;;;;;;;6.26;100.00;98567.78;5047361;28;20036;-76
2022/11/29 03:40:55;;;;;;;28.33;12.68;;;;;;;6.36;100.00;98579.09;5042072;28;20104;-76
2022/11/29 03:43:35;;;;;;;25.38;13.07;;;;;;;6.36;100.00;98584.47;5042418;28;20025;-76
2022/11/29 03:46:10;;;;;;;25.20;12.88;;;;;;;6.27;100.00;98572.16;5045522;28;20538;-77
2022/11/29 03:48:42;;;;;;;27.77;13.25;;;;;;;6.31;100.00;98581.53;5045213;28;20028;-76
2022/11/29 03:51:41;;;;;;;20.40;11.85;;;;;;;6.34;100.00;98580.28;5039246;28;20120;-76
2022/11/29 03:54:52;;;;;;;27.23;12.60;;;;;;;6.35;100.00;98582.81;5051425;28;20428;-75
2022/11/29 03:57:33;;;;;;;25.05;12.07;;;;;;;6.24;100.00;98574.38;5053941;28;20474;-77
2022/11/29 04:00:07;;;;;;;27.90;13.50;;;;;;;6.25;100.00;98598.34;5044521;28;20071;-76
2022/11/29 04:02:38;;;;;;;28.95;14.30;;;;;;;6.22;100.00;98596.03;5047393;28;20029;-76
2022/11/29 04:05:28;;;;;;;24.80;13.93;;;;;;;6.24;100.00;98596.69;5055546;28;20368;-76
2022/11/29 04:08:00;;;;;;;30.20;13.90;;;;;;;6.29;100.00;98588.09;5041019;28;20044;-78
2022/11/29 04:10:35;;;;;;;24.73;13.38;;;;;;;6.32;100.00;98587.72;5045476;28;20487;-77
2022/11/29 04:13:34;;;;;;;31.73;14.95;;;;;;;6.29;100.00;98591.59;5044781;28;20025;-77
2022/11/29 04:16:02;;;;;;;;;;;;;;;6.35;100.00;98590.03;5050470;28;20548;-77
2022/11/29 04:18:43;;;;;;;28.17;13.32;;;;;;;6.28;100.00;98587.22;5052770;28;19912;-76
2022/11/29 04:21:17;;;;;;;30.70;16.75;;;;;;;6.32;100.00;98593.09;5039602;28;20970;-75
2022/11/29 04:24:33;;;;;;;35.47;16.60;;;;;;;6.30;100.00;98604.00;5047328;28;20024;-76
2022/11/29 04:27:08;;;;;;;37.03;16.48;;;;;;;6.25;100.00;98605.56;5042741;28;20017;-76
2022/11/29 04:29:45;;;;;;;27.38;13.70;;;;;;;6.32;100.00;98614.59;5042541;28;20427;-76
2022/11/29 04:32:40;;;;;;;30.42;14.68;;;;;;;6.25;100.00;98598.34;5051720;28;20033;-75
2022/11/29 04:35:26;;;;;;;30.45;14.32;;;;;;;6.32;100.00;98610.06;5043452;28;20054;-76
2022/11/29 04:38:16;;;;;;;36.72;15.68;;;;;;;6.29;100.00;98614.97;5047098;28;20029;-80
2022/11/29 04:41:23;;;;;;;34.97;17.17;;;;;;;6.28;100.00;98624.84;5038836;28;20877;-78
2022/11/29 04:44:40;;;;;;;46.10;18.90;;;;;;;6.24;100.00;98617.34;5038383;28;20036;-79
2022/11/29 04:47:27;;;;;;;55.80;28.65;;;;;;;6.26;100.00;98621.53;5018891;28;20102;-80
2022/11/29 04:49:58;;;;;;;45.63;23.83;;;;;;;6.32;100.00;98620.78;5055545;28;20459;-81
2022/11/29 04:52:26;;;;;;;47.10;20.90;;;;;;;6.33;100.00;98627.00;5056191;28;20028;-82
2022/11/29 04:55:16;;;;;;;39.22;22.30;;;;;;;6.41;100.00;98631.47;5041920;28;20038;-83
2022/11/29 04:57:58;;;;;;;33.67;19.45;;;;;;;6.34;100.00;98612.53;5058841;28;20021;-85
2022/11/29 05:00:25;;;;;;;32.70;17.05;;;;;;;6.39;100.00;98615.53;5052169;28;20049;-82
2022/11/29 05:02:54;;;;;;;30.30;14.95;;;;;;;6.27;100.00;98595.50;5043643;28;20171;-83
2022/11/29 05:05:36;;;;;;;30.60;12.80;;;;;;;6.40;100.00;98605.63;5058794;28;20045;-81
2022/11/29 05:08:24;;;;;;;34.05;14.15;;;;;;;6.54;100.00;98637.06;5056414;28;20020;-84
2022/11/29 05:11:30;;;;;;;38.17;15.98;;;;;;;6.51;100.00;98635.56;5058021;28;20445;-82
2022/11/29 05:14:22;;;;;;;30.50;14.77;;;;;;;6.46;100.00;98624.53;5047478;28;20040;-81
2022/11/29 05:17:01;;;;;;;26.88;13.75;;;;;;;6.53;100.00;98638.09;5054955;28;20606;-80
2022/11/29 05:19:33;;;;;;;40.25;15.00;;;;;;;6.52;100.00;98648.03;5043458;28;20029;-85
2022/11/29 05:22:18;;;;;;;41.55;15.05;;;;;;;6.48;100.00;98645.88;5046809;28;20559;-80
2022/11/29 05:25:02;;;;;;;55.05;15.63;;;;;;;6.43;100.00;98626.75;5049968;28;20029;-82
2022/11/29 05:27:48;;;;;;;38.00;14.02;;;;;;;6.51;100.00;98648.19;5050338;28;20028;-83
2022/11/29 05:30:15;;;;;;;30.98;13.25;;;;;;;6.44;100.00;98640.00;5050754;28;20398;-81
2022/11/29 05:32:44;;;;;;;37.42;13.63;;;;;;;6.51;100.00;98651.69;5053579;28;20056;-82
2022/11/29 05:35:24;;;;;;;28.67;12.27;;;;;;;6.52;100.00;98656.09;5053714;28;20415;-74
2022/11/29 05:38:06;;;;;;;36.58;13.73;;;;;;;6.46;100.00;98645.19;5050157;28;20020;-72
2022/11/29 05:40:41;;;;;;;32.90;12.85;;;;;;;6.53;100.00;98656.91;5038319;28;20047;-70
2022/11/29 05:43:36;;;;;;;27.77;11.65;;;;;;;6.55;100.00;98657.56;5032221;28;20798;-71
2022/11/29 05:46:08;;;;;;;37.47;12.02;;;;;;;6.57;100.00;98666.25;5041537;28;20108;-72
2022/11/29 05:48:52;;;;;;;33.67;11.93;;;;;;;6.50;100.00;98650.03;5050097;28;20016;-72
2022/11/29 05:51:32;;;;;;;80.13;13.48;;;;;;;6.56;100.00;98657.38;5035826;28;20140;-73
2022/11/29 05:54:03;;;;;;;44.97;13.48;;;;;;;6.58;100.00;98651.81;5035191;28;20040;-72
2022/11/29 05:56:37;;;;;;;25.40;9.30;;;;;;;6.53;100.00;98641.63;5048091;28;20044;-73
2022/11/29 05:59:15;;;;;;;20.83;9.40;;;;;;;6.58;100.00;98654.50;5044983;28;20053;-72
2022/11/29 06:01:59;;;;;;;23.52;9.27;;;;;;;6.64;100.00;98674.44;5040483;28;20082;-72
2022/11/29 06:04:45;;;;;;;41.88;11.43;;;;;;;6.66;100.00;98669.75;5054533;28;20025;-73
2022/11/29 06:07:18;;;;;;;26.48;9.98;;;;;;;6.57;100.00;98658.19;5068362;28;20024;-75
2022/11/29 06:09:54;;;;;;;37.45;11.05;;;;;;;6.58;100.00;98665.25;5064962;28;20018;-73
2022/11/29 06:12:22;;;;;;;43.83;10.70;;;;;;;6.44;100.00;98639.16;5071432;28;20049;-74
2022/11/29 06:14:55;;;;;;;33.55;10.77;;;;;;;6.67;100.00;98680.28;5070995;28;20029;-75
2022/11/29 06:17:52;;;;;;;40.72;11.15;;;;;;;6.66;100.00;98685.88;5071383;28;20228;-77
2022/11/29 06:20:23;;;;;;;40.90;10.55;;;;;;;6.65;100.00;98684.19;5065696;28;20021;-76
2022/11/29 06:23:28;;;;;;;25.90;9.00;;;;;;;6.42;100.00;98649.25;5068489;28;20023;-76
2022/11/29 06:26:22;;;;;;;25.98;9.30;;;;;;;6.59;100.00;98683.06;5063087;28;20021;-72
2022/11/29 06:29:31;;;;;;;22.75;8.57;;;;;;;6.63;100.00;98697.81;5070328;28;20017;-72
2022/11/29 06:32:04;;;;;;;20.55;8.65;;;;;;;6.65;100.00;98692.25;5044500;28;20021;-80
2022/11/29 06:35:03;;;;;;;26.90;10.68;;;;;;;6.64;100.00;98699.47;5042317;28;20499;-72
2022/11/29 06:37:36;;;;;;;27.45;9.80;;;;;;;6.56;100.00;98678.03;5052593;28;20040;-75
2022/11/29 06:40:03;;;;;;;47.30;11.52;;;;;;;6.57;100.00;98683.22;5038247;28;20449;-72
2022/11/29 06:42:28;;;;;;;23.20;9.23;;;;;;;6.58;100.00;98692.97;5039251;28;20032;-72
2022/11/29 06:44:54;;;;;;;27.42;10.63;;;;;;;6.60;100.00;98695.47;5038768;28;20079;-72
2022/11/29 06:47:42;;;;;;;19.88;8.02;;;;;;;6.65;100.00;98706.50;5039477;28;20047;-73
2022/11/29 06:50:26;;;;;;;27.88;8.55;;;;;;;6.65;100.00;98711.06;5031391;28;20383;-73
2022/11/29 06:53:03;;;;;;;25.05;8.45;;;;;;;6.66;100.00;98710.91;5041658;28;20025;-73
2022/11/29 06:55:40;;;;;;;33.72;9.90;;;;;;;6.65;100.00;98703.81;5029418;28;20115;-72
2022/11/29 06:58:31;;;;;;;53.03;10.30;;;;;;;6.64;100.00;98712.91;5038150;28;20572;-82
2022/11/29 07:01:09;;;;;;;31.05;9.15;;;;;;;6.66;100.00;98718.97;5050846;28;20024;-81
2022/11/29 07:03:49;;;;;;;46.80;10.93;;;;;;;6.46;100.00;98697.09;5031143;28;20021;-71
2022/11/29 07:06:24;;;;;;;44.45;9.40;;;;;;;6.61;100.00;98728.59;5030908;28;20025;-72
2022/11/29 07:08:59;;;;;;;21.58;7.70;;;;;;;6.54;100.00;98710.47;5038492;28;20028;-72
2022/11/29 07:11:25;;;;;;;38.00;9.75;;;;;;;6.60;100.00;98730.41;5050697;28;20032;-72
2022/11/29 07:13:51;;;;;;;34.85;9.40;;;;;;;6.63;100.00;98740.84;5034478;28;20029;-71
2022/11/29 07:16:52;;;;;;;30.90;8.93;;;;;;;6.57;100.00;98722.72;5033374;28;20387;-72
2022/11/29 07:19:44;;;;;;;27.15;8.30;;;;;;;6.64;100.00;98731.75;5030195;28;20049;-72
2022/11/29 07:22:31;;;;;;;24.23;8.30;;;;;;;6.67;100.00;98739.44;5039030;28;20036;-73
2022/11/29 07:25:19;;;;;;;32.47;8.73;;;;;;;6.68;100.00;98741.13;5034165;28;20035;-72
2022/11/29 07:28:13;;;;;;;30.80;8.57;;;;;;;6.60;100.00;98725.03;5035198;28;20029;-71
2022/11/29 07:30:38;;;;;;;28.92;7.80;;;;;;;6.67;100.00;98742.13;5044670;28;20532;-71
2022/11/29 07:33:19;;;;;;;32.30;8.13;;;;;;;6.59;100.00;98728.75;5041150;28;20100;-72
2022/11/29 07:35:53;;;;;;;19.92;7.60;;;;;;;6.71;100.00;98743.44;5038968;28;20387;-77
2022/11/29 07:38:37;;;;;;;19.80;6.93;;;;;;;6.72;100.00;98749.66;5034314;28;20032;-72
2022/11/29 07:41:16;;;;;;;17.77;6.57;;;;;;;6.73;100.00;98745.94;5041736;28;20059;-71
2022/11/29 07:43:55;;;;;;;17.23;7.07;;;;;;;6.69;100.00;98734.72;5041563;28;20021;-71
2022/11/29 07:46:20;;;;;;;16.45;6.80;;;;;;;6.74;100.00;98742.25;5043401;28;22483;-72
2022/11/29 07:48:46;;;;;;;14.57;6.70;;;;;;;6.78;100.00;98736.31;5041806;28;20036;-72
2022/11/29 07:51:11;;;;;;;13.52;6.05;;;;;;;6.73;100.00;98741.44;5031642;28;20041;-72
2022/11/29 07:53:41;;;;;;;10.63;6.10;;;;;;;6.80;100.00;98750.41;5040227;28;20031;-71
2022/11/29 07:56:08;;;;;;;12.07;6.57;;;;;;;6.84;100.00;98752.75;5034246;28;20036;-72
2022/11/29 07:58:34;;;;;;;15.57;6.95;;;;;;;6.74;100.00;98745.78;5039872;28;20053;-71
2022/11/29 08:01:00;;;;;;;12.80;6.47;;;;;;;6.80;100.00;98742.34;5035393;28;20029;-72
2022/11/29 08:03:25;;;;;;;14.98;7.45;;;;;;;6.88;100.00;98754.91;5040086;28;20433;-71
2022/11/29 08:05:51;;;;;;;17.33;7.72;;;;;;;6.99;100.00;98756.31;5042299;28;20431;-83
2022/11/29 08:08:16;;;;;;;14.57;7.47;;;;;;;6.98;100.00;98760.88;5044131;28;20049;-82
2022/11/29 08:10:42;;;;;;;13.65;7.10;;;;;;;7.00;100.00;98744.56;5033221;28;20034;-84
2022/11/29 08:13:07;;;;;;;10.50;7.00;;;;;;;6.91;100.00;98734.88;5035553;28;20026;-73
2022/11/29 08:15:32;;;;;;;11.98;6.82;;;;;;;7.12;100.00;98756.53;5043155;28;20029;-72
2022/11/29 08:17:58;;;;;;;10.10;5.97;;;;;;;6.99;100.00;98726.72;5044454;28;20036;-71
2022/11/29 08:20:23;;;;;;;10.07;6.45;;;;;;;7.04;100.00;98748.53;5048012;28;20029;-71
2022/11/29 08:22:58;;;;;;;8.57;5.53;;;;;;;7.12;100.00;98747.63;5046364;28;20435;-71
2022/11/29 08:25:26;;;;;;;8.98;6.25;;;;;;;7.30;100.00;98768.81;5041723;28;20037;-71
2022/11/29 08:27:53;;;;;;;12.60;8.32;;;;;;;7.36;100.00;98760.00;5047174;28;20471;-72
2022/11/29 08:30:21;;;;;;;12.60;8.13;;;;;;;7.31;100.00;98751.66;5049872;28;20044;-71
2022/11/29 08:32:46;;;;;;;10.85;7.15;;;;;;;7.41;100.00;98765.66;5054466;28;20017;-71
2022/11/29 08:35:12;;;;;;;11.23;7.10;;;;;;;7.39;100.00;98757.81;5050183;28;20038;-72
2022/11/29 08:37:37;;;;;;;9.88;7.18;;;;;;;7.46;100.00;98755.19;5041496;28;20030;-72
2022/11/29 08:40:03;;;;;;;12.48;8.52;;;;;;;7.61;100.00;98764.13;5049530;28;20482;-70
2022/11/29 08:42:28;;;;;;;18.05;10.48;;;;;;;7.72;100.00;98761.97;5046718;28;20025;-73
2022/11/29 08:44:54;;;;;;;28.13;16.17;;;;;;;7.66;100.00;98742.03;5031629;28;20119;-71
2022/11/29 08:47:37;;;;;;;25.48;14.85;;;;;;;7.69;100.00;98760.50;5041335;28;20739;-70
2022/11/29 08:50:13;;;;;;;22.75;13.48;;;;;;;7.73;100.00;98758.25;5040691;28;20478;-70
2022/11/29 08:55:27;;;;;;;15.60;9.65;;;;;;;7.83;100.00;98764.19;5053036;28;20044;-72
2022/11/29 08:57:58;;;;;;;13.57;8.38;;;;;;;7.93;100.00;98759.38;5039360;28;20028;-72
2022/11/29 09:00:24;;;;;;;11.55;7.75;;;;;;;7.90;100.00;98748.97;5035427;28;20024;-72
2022/11/29 09:02:49;;;;;;;11.57;7.50;;;;;;;7.91;100.00;98731.78;5045435;28;20025;-72
2022/11/29 09:05:14;;;;;;;15.13;8.00;;;;;;;7.97;100.00;98755.28;5043801;28;20070;-71
2022/11/29 09:07:40;;;;;;;10.90;7.63;;;;;;;8.08;100.00;98752.09;5032515;28;20025;-73
2022/11/29 09:10:08;;;;;;;11.02;7.60;;;;;;;8.12;100.00;98757.94;5035207;28;20634;-75
2022/11/29 09:12:38;;;;;;;12.98;8.00;;;;;;;8.16;100.00;98758.41;5044475;28;20055;-74
2022/11/29 09:15:06;;;;;;;11.50;7.55;;;;;;;8.13;100.00;98762.31;5053941;28;20483;-75
2022/11/29 09:17:32;;;;;;;12.88;8.40;;;;;;;8.27;100.00;98772.22;5045157;28;20029;-74
2022/11/29 09:19:57;;;;;;;13.32;7.80;;;;;;;8.27;100.00;98764.13;5032978;28;20502;-75
2022/11/29 09:22:22;;;;;;;10.65;7.13;;;;;;;8.30;100.00;98762.91;5054135;28;20053;-73
2022/11/29 09:24:48;;;;;;;12.30;8.35;;;;;;;8.33;100.00;98765.22;5054029;28;20171;-75
2022/11/29 09:27:13;;;;;;;12.48;7.75;;;;;;;8.37;100.00;98761.16;5052702;28;20025;-73
2022/11/29 09:29:38;;;;;;;11.13;7.38;;;;;;;8.37;100.00;98763.00;5043529;28;20033;-74
2022/11/29 09:32:04;;;;;;;11.38;7.95;;;;;;;8.38;100.00;98764.66;5041994;28;20540;-75
2022/11/29 09:34:29;;;;;;;12.63;7.55;;;;;;;8.55;100.00;98752.66;5032642;28;20021;-74
2022/11/29 09:36:55;;;;;;;11.45;7.88;;;;;;;8.60;100.00;98770.97;5033251;28;20032;-74
2022/11/29 09:39:20;;;;;;;13.68;8.25;;;;;;;8.67;100.00;98756.53;5034542;28;20036;-73
2022/11/29 09:42:03;;;;;;;12.45;7.90;;;;;;;8.82;100.00;98774.50;5052120;28;20082;-71
2022/11/29 09:44:50;;;;;;;12.70;7.75;;;;;;;8.78;100.00;98774.06;5052350;28;20021;-73
2022/11/29 09:47:41;;;;;;;11.77;7.93;;;;;;;8.75;100.00;98771.72;5038158;28;20021;-70
2022/11/29 09:50:30;;;;;;;12.25;6.90;;;;;;;8.77;100.00;98766.97;5050509;28;20037;-69
2022/11/29 09:53:20;;;;;;;11.00;7.00;;;;;;;8.78;100.00;98772.19;5033870;28;20025;-72
2022/11/29 09:55:52;;;;;;;11.10;7.20;;;;;;;8.69;100.00;98778.72;5045473;28;20029;-70
2022/11/29 09:58:21;;;;;;;10.63;7.05;;;;;;;8.70;100.00;98774.19;5041724;28;20035;-71
2022/11/29 10:00:57;;;;;;;11.15;7.35;;;;;;;8.69;100.00;98757.16;5040435;28;20017;-70
2022/11/29 10:03:33;;;;;;;9.88;6.55;;;;;;;8.72;100.00;98782.91;5048029;28;20021;-70
2022/11/29 10:06:06;;;;;;;10.93;6.93;;;;;;;8.74;100.00;98783.56;5051956;28;20589;-71
2022/11/29 10:08:45;;;;;;;9.75;6.20;;;;;;;8.77;100.00;98785.88;5049218;28;20037;-71
2022/11/29 10:11:20;;;;;;;10.32;6.57;;;;;;;8.69;100.00;98767.94;5047239;28;20021;-70
2022/11/29 10:13:57;;;;;;;10.75;6.63;;;;;;;8.69;100.00;98769.81;5051335;28;20119;-73
2022/11/29 10:16:33;;;;;;;8.88;5.47;;;;;;;8.81;100.00;98772.84;5040506;28;20033;-75
2022/11/29 10:19:09;;;;;;;8.20;4.93;;;;;;;8.84;100.00;98789.47;5044961;28;20051;-72
2022/11/29 10:21:41;;;;;;;7.32;5.13;;;;;;;8.80;100.00;98777.38;5038527;28;20025;-72
2022/11/29 10:24:14;;;;;;;6.47;4.75;;;;;;;8.83;100.00;98781.56;5048704;28;20033;-71
2022/11/29 10:26:40;;;;;;;7.15;5.07;;;;;;;8.67;100.00;98769.16;5051139;28;20024;-71
2022/11/29 10:29:05;;;;;;;7.10;4.75;;;;;;;8.71;100.00;98767.75;5052033;28;20041;-77
2022/11/29 10:31:35;;;;;;;7.13;5.03;;;;;;;8.64;100.00;98751.50;5038521;28;20027;-78
2022/11/29 10:34:03;;;;;;;;;;;;;;;8.75;100.00;98785.22;5051932;28;20024;-76
2022/11/29 10:36:38;;;;;;;8.10;5.28;;;;;;;8.60;100.00;98766.41;5051778;28;19947;-74
2022/11/29 10:39:12;;;;;;;8.77;5.03;;;;;;;8.74;100.00;98772.75;5043208;28;20041;-71
2022/11/29 10:41:37;;;;;;;9.25;6.38;;;;;;;8.64;100.00;98772.25;5043789;28;20021;-74
2022/11/29 10:44:02;;;;;;;9.93;6.20;;;;;;;8.56;100.00;98774.03;5051450;28;20072;-74
2022/11/29 10:46:34;;;;;;;9.75;6.15;;;;;;;8.45;100.00;98769.16;5052548;28;20655;-75
2022/11/29 10:49:04;;;;;;;10.20;6.32;;;;;;;8.53;100.00;98777.09;5048737;28;20025;-75
2022/11/29 10:51:30;;;;;;;9.45;6.00;;;;;;;8.21;100.00;98715.56;5043701;28;20111;-73
2022/11/29 10:54:13;;;;;;;10.27;6.13;;;;;;;8.47;100.00;98764.41;5037450;28;20079;-76
2022/11/29 10:56:40;;;;;;;8.93;6.10;;;;;;;8.54;100.00;98777.94;5036274;28;20647;-76
2022/11/29 10:59:08;;;;;;;9.57;5.97;;;;;;;8.50;100.00;98772.09;5039620;28;20035;-73
2022/11/29 11:01:40;;;;;;;9.38;5.35;;;;;;;8.43;100.00;98768.50;5040436;28;20032;-74
2022/11/29 11:04:12;;;;;;;10.75;5.93;;;;;;;8.49;100.00;98778.53;5042410;28;20037;-73
2022/11/29 11:06:55;;;;;;;10.38;5.38;;;;;;;8.56;100.00;98774.03;5037755;28;20026;-80
2022/11/29 11:09:47;;;;;;;9.43;5.68;;;;;;;8.48;100.00;98767.94;5047342;28;20633;-80
2022/11/29 11:12:12;;;;;;;12.48;6.55;;;;;;;8.59;100.00;98789.00;5040850;28;20088;-79
2022/11/29 11:14:38;;;;;;;9.68;6.28;;;;;;;8.71;100.00;98792.03;5051358;28;20435;-77
2022/11/29 11:17:22;;;;;;;13.30;6.55;;;;;;;8.74;100.00;98791.66;5051618;28;20383;-79
2022/11/29 11:19:57;;;;;;;13.23;6.97;;;;;;;8.74;100.00;98781.69;5050008;28;20036;-75
2022/11/29 11:22:24;;;;;;;9.90;5.70;;;;;;;8.65;100.00;98790.13;5040347;28;20025;-73
2022/11/29 11:24:59;;;;;;;10.68;6.03;;;;;;;8.66;100.00;98776.41;5054546;28;20481;-82
2022/11/29 11:27:30;;;;;;;12.02;6.47;;;;;;;8.72;100.00;98788.28;5055193;28;20387;-70
2022/11/29 11:29:56;;;;;;;10.45;5.78;;;;;;;8.69;100.00;98764.41;5038188;28;20025;-70
2022/11/29 11:32:22;;;;;;;10.63;6.25;;;;;;;8.67;100.00;98782.63;5040146;28;20127;-70
2022/11/29 11:34:50;;;;;;;10.75;6.18;;;;;;;8.72;100.00;98772.13;5049973;28;20036;-70
2022/11/29 11:37:18;;;;;;;10.18;5.68;;;;;;;8.63;100.00;98757.09;5039759;28;20398;-70
2022/11/29 11:39:45;;;;;;;10.00;5.40;;;;;;;8.79;100.00;98775.72;5049492;28;20025;-70
2022/11/29 11:45:04;;;;;;;8.77;4.95;;;;;;;9.03;100.00;98777.19;5042126;28;20035;-70
2022/11/29 11:47:33;;;;;;;10.55;5.47;;;;;;;9.09;100.00;98778.28;5037704;28;21148;-80
2022/11/29 11:49:58;;;;;;;8.32;5.60;;;;;;;9.11;100.00;98776.22;5040920;28;20029;-81
2022/11/29 11:52:41;;;;;;;9.35;5.22;;;;;;;9.35;100.00;98786.59;5047639;28;20041;-77
2022/11/29 11:55:32;;;;;;;8.45;5.05;;;;;;;9.37;100.00;98779.13;5044576;28;20025;-77
2022/11/29 11:58:03;;;;;;;11.18;5.57;;;;;;;9.46;100.00;98784.38;5038949;28;20087;-78
2022/11/29 12:00:51;;;;;;;10.23;5.72;;;;;;;9.62;100.00;98771.41;5045029;28;20060;-80
2022/11/29 12:03:27;;;;;;;6.63;4.68;;;;;;;9.39;100.00;98768.97;5041151;28;20141;-79